createdAt,value
2017-08-31T00:00:08.157Z,78.75
2017-08-31T00:00:36.273Z,78.85
2017-08-31T00:01:04.390Z,79.03
2017-08-31T00:01:32.494Z,79.43
2017-08-31T00:02:00.583Z,80.1
2017-08-31T00:02:28.803Z,80
2017-08-31T00:02:57.032Z,80.1
2017-08-31T00:03:25.222Z,80.19
2017-08-31T00:03:53.565Z,80.38
2017-08-31T00:04:21.462Z,80.68
2017-08-31T00:04:49.649Z,81.16
2017-08-31T00:05:17.811Z,80.87
2017-08-31T00:05:46.034Z,81.16
2017-08-31T00:06:14.258Z,80.87
2017-08-31T00:06:42.454Z,81.16
2017-08-31T00:07:10.314Z,80.68
2017-08-31T00:07:38.359Z,80.38
2017-08-31T00:08:06.429Z,80.68
2017-08-31T00:08:34.613Z,80.87
2017-08-31T00:09:02.897Z,80.77
2017-08-31T00:09:31.055Z,80.48
2017-08-31T00:09:59.246Z,80.29
2017-08-31T00:10:27.451Z,80.38
2017-08-31T00:10:55.528Z,80.38
2017-08-31T00:11:23.779Z,80.48
2017-08-31T00:11:51.995Z,80.38
2017-08-31T00:12:20.089Z,80.29
2017-08-31T00:12:48.214Z,79.81
2017-08-31T00:13:16.352Z,79.9
2017-08-31T00:13:44.566Z,79.81
2017-08-31T00:14:12.626Z,79.81
2017-08-31T00:14:40.846Z,79.81
2017-08-31T00:15:09.100Z,79.81
2017-08-31T00:15:37.099Z,79.81
2017-08-31T00:16:05.331Z,80
2017-08-31T00:16:33.429Z,79.9
2017-08-31T00:17:01.636Z,79.81
2017-08-31T00:17:29.879Z,79.77
2017-08-31T00:17:57.940Z,80.25
2017-08-31T00:18:26.185Z,79.96
2017-08-31T00:18:54.393Z,79.96
2017-08-31T00:19:22.565Z,80.25
2017-08-31T00:19:50.767Z,80.63
2017-08-31T00:20:19.010Z,80.83
2017-08-31T00:20:47.215Z,80.35
2017-08-31T00:21:15.297Z,80.73
2017-08-31T00:21:44.220Z,81.02
2017-08-31T00:22:12.397Z,81.02
2017-08-31T00:22:40.490Z,81.02
2017-08-31T00:23:08.673Z,81.12
2017-08-31T00:23:36.828Z,81.3
2017-08-31T00:24:05.069Z,81.4
2017-08-31T00:24:33.341Z,81.6
2017-08-31T00:25:01.526Z,81.6
2017-08-31T00:25:29.697Z,81.7
2017-08-31T00:25:57.890Z,81.79
2017-08-31T00:26:25.941Z,81.5
2017-08-31T00:26:54.125Z,81.4
2017-08-31T00:27:22.246Z,81.4
2017-08-31T00:27:50.454Z,81.4
2017-08-31T00:28:18.466Z,81.6
2017-08-31T00:28:46.656Z,81.79
2017-08-31T00:29:14.841Z,81.88
2017-08-31T00:29:42.934Z,81.88
2017-08-31T00:30:11.067Z,81.7
2017-08-31T00:30:39.251Z,82.08
2017-08-31T00:31:07.471Z,81.79
2017-08-31T00:31:35.685Z,81.88
2017-08-31T00:32:03.637Z,81.84
2017-08-31T00:32:31.772Z,82.37
2017-08-31T00:33:00.049Z,82.04
2017-08-31T00:33:28.199Z,82.08
2017-08-31T00:33:56.415Z,81.94
2017-08-31T00:34:24.649Z,81.65
2017-08-31T00:34:52.948Z,82.04
2017-08-31T00:35:21.173Z,82.32
2017-08-31T00:35:49.287Z,82.14
2017-08-31T00:36:17.377Z,82.23
2017-08-31T00:36:45.598Z,82.9
2017-08-31T00:37:13.828Z,83
2017-08-31T00:37:42.061Z,82.9
2017-08-31T00:38:10.005Z,83
2017-08-31T00:38:38.197Z,83.19
2017-08-31T00:39:06.453Z,83.29
2017-08-31T00:39:34.588Z,83.67
2017-08-31T00:40:02.701Z,83.77
2017-08-31T00:40:30.730Z,84.06
2017-08-31T00:40:58.855Z,83.86
2017-08-31T00:41:27.034Z,83.96
2017-08-31T00:41:55.037Z,83.86
2017-08-31T00:42:23.169Z,83.77
2017-08-31T00:42:51.366Z,83.48
2017-08-31T00:43:19.461Z,84.25
2017-08-31T00:43:47.606Z,84.25
2017-08-31T00:44:15.761Z,83.96
2017-08-31T00:44:43.985Z,84.25
2017-08-31T00:45:12.168Z,83.86
2017-08-31T00:45:40.263Z,83.96
2017-08-31T00:46:08.444Z,84.34
2017-08-31T00:46:36.692Z,84.54
2017-08-31T00:47:04.705Z,84.63
2017-08-31T00:47:32.794Z,84.25
2017-08-31T00:48:01.007Z,84.16
2017-08-31T00:48:29.228Z,84.16
2017-08-31T00:48:57.505Z,84.25
2017-08-31T00:49:25.734Z,84.34
2017-08-31T00:49:53.948Z,84.78
2017-08-31T00:50:22.138Z,84.5
2017-08-31T00:50:50.250Z,85.17
2017-08-31T00:51:18.326Z,85.02
2017-08-31T00:51:46.535Z,85.31
2017-08-31T00:52:14.793Z,85.31
2017-08-31T00:52:42.778Z,85.11
2017-08-31T00:53:11.010Z,85.21
2017-08-31T00:53:39.059Z,85.21
2017-08-31T00:54:07.276Z,85.21
2017-08-31T00:54:35.606Z,84.92
2017-08-31T00:55:03.643Z,85.31
2017-08-31T00:55:31.743Z,85.31
2017-08-31T00:55:59.938Z,85.31
2017-08-31T00:56:28.151Z,85.02
2017-08-31T00:56:56.312Z,84.92
2017-08-31T00:57:24.469Z,84.92
2017-08-31T00:57:52.561Z,84.83
2017-08-31T00:58:20.777Z,84.92
2017-08-31T00:58:48.911Z,84.83
2017-08-31T00:59:17.157Z,85.31
2017-08-31T00:59:45.346Z,85.11
2017-08-31T01:00:13.528Z,85.31
2017-08-31T01:00:41.556Z,85.21
2017-08-31T01:01:09.661Z,85.21
2017-08-31T01:01:37.672Z,84.83
2017-08-31T01:02:05.762Z,84.92
2017-08-31T01:02:33.859Z,85.11
2017-08-31T01:03:02.090Z,85.6
2017-08-31T01:03:30.110Z,85.21
2017-08-31T01:03:58.211Z,85.6
2017-08-31T01:04:26.570Z,85.69
2017-08-31T01:04:54.774Z,85.4
2017-08-31T01:05:22.789Z,85.6
2017-08-31T01:05:51.064Z,85.5
2017-08-31T01:06:19.265Z,85.69
2017-08-31T01:06:47.510Z,85.4
2017-08-31T01:07:15.664Z,85.4
2017-08-31T01:07:43.789Z,85.5
2017-08-31T01:08:12.016Z,85.6
2017-08-31T01:08:40.199Z,85.5
2017-08-31T01:09:08.315Z,85.11
2017-08-31T01:09:36.601Z,85.21
2017-08-31T01:10:04.834Z,85.94
2017-08-31T01:10:32.909Z,85.55
2017-08-31T01:11:01.039Z,85.98
2017-08-31T01:11:29.148Z,85.94
2017-08-31T01:11:57.162Z,86.13
2017-08-31T01:12:25.283Z,86.04
2017-08-31T01:12:53.505Z,86.32
2017-08-31T01:13:21.670Z,86.22
2017-08-31T01:13:49.761Z,86.13
2017-08-31T01:14:17.734Z,86.22
2017-08-31T01:14:45.880Z,87.19
2017-08-31T01:15:13.875Z,87.09
2017-08-31T01:15:42.035Z,86.99
2017-08-31T01:16:10.241Z,87.09
2017-08-31T01:16:38.433Z,87.38
2017-08-31T01:17:06.692Z,87.67
2017-08-31T01:17:34.953Z,87.76
2017-08-31T01:18:03.150Z,87.96
2017-08-31T01:18:31.143Z,87.96
2017-08-31T01:18:59.300Z,88.92
2017-08-31T01:19:27.456Z,88.92
2017-08-31T01:19:55.567Z,89.4
2017-08-31T01:20:23.669Z,89.59
2017-08-31T01:20:51.805Z,89.98
2017-08-31T01:21:19.921Z,90.17
2017-08-31T01:21:48.031Z,90.07
2017-08-31T01:22:16.061Z,90.17
2017-08-31T01:22:44.263Z,90.36
2017-08-31T01:23:12.444Z,90.36
2017-08-31T01:23:40.626Z,90.45
2017-08-31T01:24:08.832Z,90.45
2017-08-31T01:24:37.003Z,90.84
2017-08-31T01:25:05.121Z,90.36
2017-08-31T01:25:33.224Z,91.03
2017-08-31T01:26:01.295Z,90.84
2017-08-31T01:26:29.486Z,91.42
2017-08-31T01:26:57.478Z,91.03
2017-08-31T01:27:25.709Z,91.42
2017-08-31T01:27:53.921Z,91.66
2017-08-31T01:28:22.134Z,91.61
2017-08-31T01:28:50.306Z,91.52
2017-08-31T01:29:18.511Z,91.61
2017-08-31T01:29:46.850Z,91.71
2017-08-31T01:30:14.997Z,91.52
2017-08-31T01:30:43.060Z,91.37
2017-08-31T01:31:11.157Z,92.14
2017-08-31T01:31:39.345Z,91.75
2017-08-31T01:32:07.615Z,91.75
2017-08-31T01:32:35.817Z,91.85
2017-08-31T01:33:03.997Z,91.75
2017-08-31T01:33:32.184Z,91.56
2017-08-31T01:34:00.207Z,91.75
2017-08-31T01:34:28.347Z,91.75
2017-08-31T01:34:56.429Z,92.05
2017-08-31T01:35:24.462Z,92.05
2017-08-31T01:35:52.690Z,91.95
2017-08-31T01:36:20.900Z,92.43
2017-08-31T01:36:49.003Z,92.52
2017-08-31T01:37:17.072Z,92.33
2017-08-31T01:37:45.279Z,92.33
2017-08-31T01:38:13.337Z,92.62
2017-08-31T01:38:41.558Z,92.91
2017-08-31T01:39:09.694Z,93.49
2017-08-31T01:39:37.748Z,93.87
2017-08-31T01:40:05.962Z,94.45
2017-08-31T01:40:33.965Z,94.98
2017-08-31T01:41:02.019Z,94.59
2017-08-31T01:41:30.122Z,95.12
2017-08-31T01:41:58.139Z,94.98
2017-08-31T01:42:26.353Z,95.07
2017-08-31T01:42:54.570Z,94.68
2017-08-31T01:43:22.805Z,94.45
2017-08-31T01:43:50.901Z,94.83
2017-08-31T01:44:18.985Z,95.12
2017-08-31T01:44:47.181Z,94.59
2017-08-31T01:45:15.516Z,94.16
2017-08-31T01:45:43.763Z,94.16
2017-08-31T01:46:11.942Z,94.16
2017-08-31T01:46:40.236Z,94.35
2017-08-31T01:47:08.504Z,94.16
2017-08-31T01:47:36.602Z,93.96
2017-08-31T01:48:04.540Z,93.96
2017-08-31T01:48:32.702Z,93.96
2017-08-31T01:49:00.841Z,93.87
2017-08-31T01:49:28.843Z,93.87
2017-08-31T01:49:57.038Z,93.58
2017-08-31T01:50:25.312Z,93.29
2017-08-31T01:50:53.671Z,93.19
2017-08-31T01:51:21.860Z,93.19
2017-08-31T01:51:50.111Z,93.39
2017-08-31T01:52:18.230Z,92.91
2017-08-31T01:52:46.127Z,93.01
2017-08-31T01:53:14.323Z,92.81
2017-08-31T01:53:42.426Z,92.91
2017-08-31T01:54:10.531Z,92.81
2017-08-31T01:54:38.758Z,92.62
2017-08-31T01:55:07.108Z,92.24
2017-08-31T01:55:35.210Z,92.62
2017-08-31T01:56:03.202Z,92.62
2017-08-31T01:56:31.339Z,92.33
2017-08-31T01:56:59.540Z,92.52
2017-08-31T01:57:27.743Z,91.56
2017-08-31T01:57:55.932Z,91.95
2017-08-31T01:58:24.037Z,91.85
2017-08-31T01:58:52.135Z,91.56
2017-08-31T01:59:20.230Z,91.47
2017-08-31T01:59:48.414Z,91.37
2017-08-31T02:00:16.537Z,91.37
2017-08-31T02:00:44.724Z,91.08
2017-08-31T02:01:12.930Z,91.37
2017-08-31T02:01:41.145Z,91.22
2017-08-31T02:02:09.247Z,91.18
2017-08-31T02:02:37.457Z,90.8
2017-08-31T02:03:05.580Z,91.03
2017-08-31T02:03:33.776Z,90.45
2017-08-31T02:04:02.292Z,90.75
2017-08-31T02:04:30.379Z,90.84
2017-08-31T02:04:58.595Z,91.03
2017-08-31T02:05:26.949Z,91.52
2017-08-31T02:05:55.164Z,91.8
2017-08-31T02:06:23.220Z,91.52
2017-08-31T02:06:51.221Z,92.09
2017-08-31T02:07:19.302Z,92.29
2017-08-31T02:07:47.312Z,93.15
2017-08-31T02:08:15.451Z,92.86
2017-08-31T02:08:43.625Z,93.49
2017-08-31T02:09:11.720Z,93.44
2017-08-31T02:09:39.836Z,93.34
2017-08-31T02:10:07.949Z,93.29
2017-08-31T02:10:36.153Z,93.58
2017-08-31T02:11:04.374Z,94.4
2017-08-31T02:11:32.333Z,94.73
2017-08-31T02:12:00.360Z,95.4
2017-08-31T02:12:28.571Z,95.6
2017-08-31T02:12:56.781Z,96.17
2017-08-31T02:13:24.907Z,96.27
2017-08-31T02:13:52.990Z,95.98
2017-08-31T02:14:21.082Z,96.66
2017-08-31T02:14:49.192Z,96.66
2017-08-31T02:15:17.310Z,97.24
2017-08-31T02:15:45.597Z,97.42
2017-08-31T02:16:13.909Z,97.52
2017-08-31T02:16:42.102Z,98.1
2017-08-31T02:17:10.084Z,97.86
2017-08-31T02:17:38.308Z,98.24
2017-08-31T02:18:06.529Z,98.72
2017-08-31T02:18:34.716Z,99.2
2017-08-31T02:19:02.951Z,99.3
2017-08-31T02:19:31.074Z,99.68
2017-08-31T02:19:59.323Z,99.87
2017-08-31T02:20:27.616Z,99.99
2017-08-31T02:20:55.640Z,99.99
2017-08-31T02:21:23.750Z,99.99
2017-08-31T02:21:51.838Z,99.99
2017-08-31T02:22:20.053Z,99.99
2017-08-31T02:22:48.210Z,99.99
2017-08-31T02:23:16.396Z,99.99
2017-08-31T02:23:44.384Z,99.99
2017-08-31T02:24:12.394Z,99.99
2017-08-31T02:24:40.643Z,99.99
2017-08-31T02:25:08.856Z,99.99
2017-08-31T02:25:37.146Z,99.99
2017-08-31T02:26:05.334Z,99.99
2017-08-31T02:26:33.463Z,99.99
2017-08-31T02:27:01.653Z,99.99
2017-08-31T02:27:29.648Z,99.99
2017-08-31T02:27:57.678Z,99.99
2017-08-31T02:28:25.923Z,99.99
2017-08-31T02:28:54.034Z,99.99
2017-08-31T02:29:22.210Z,99.99
2017-08-31T02:29:50.429Z,99.99
2017-08-31T02:30:18.604Z,99.99
2017-08-31T02:30:46.926Z,99.99
2017-08-31T02:31:14.956Z,99.99
2017-08-31T02:31:43.157Z,99.99
2017-08-31T02:32:11.251Z,99.99
2017-08-31T02:32:39.213Z,99.99
2017-08-31T02:33:07.282Z,99.99
2017-08-31T02:33:35.433Z,99.99
2017-08-31T02:34:03.555Z,99.99
2017-08-31T02:34:31.723Z,99.99
2017-08-31T02:34:59.896Z,99.99
2017-08-31T02:35:27.993Z,99.99
2017-08-31T02:35:56.110Z,99.99
2017-08-31T02:36:24.190Z,99.99
2017-08-31T02:36:52.403Z,99.99
2017-08-31T02:37:20.562Z,99.99
2017-08-31T02:37:48.681Z,99.99
2017-08-31T02:38:16.769Z,99.99
2017-08-31T02:38:44.983Z,99.99
2017-08-31T02:39:13.240Z,99.99
2017-08-31T02:39:41.358Z,99.99
2017-08-31T02:40:09.486Z,99.99
2017-08-31T02:40:37.682Z,99.99
2017-08-31T02:41:05.989Z,99.99
2017-08-31T02:41:34.213Z,99.99
2017-08-31T02:42:02.385Z,99.99
2017-08-31T02:42:30.449Z,99.99
2017-08-31T02:42:58.623Z,99.99
2017-08-31T02:43:26.645Z,99.99
2017-08-31T02:43:54.643Z,99.99
2017-08-31T02:44:22.888Z,99.99
2017-08-31T02:44:50.889Z,99.99
2017-08-31T02:45:18.990Z,99.99
2017-08-31T02:45:47.330Z,99.99
2017-08-31T02:46:15.418Z,99.99
2017-08-31T02:46:43.631Z,99.99
2017-08-31T02:47:11.836Z,99.99
2017-08-31T02:47:39.849Z,99.99
2017-08-31T02:48:08.062Z,99.99
2017-08-31T02:48:36.252Z,99.99
2017-08-31T02:49:04.257Z,99.99
2017-08-31T02:49:32.325Z,99.99
2017-08-31T02:50:00.555Z,99.99
2017-08-31T02:50:28.608Z,99.99
2017-08-31T02:50:56.790Z,99.99
2017-08-31T02:51:24.824Z,99.99
2017-08-31T02:51:53.068Z,99.99
2017-08-31T02:52:21.176Z,99.99
2017-08-31T02:52:49.372Z,99.99
2017-08-31T02:53:17.552Z,99.99
2017-08-31T02:53:45.565Z,99.99
2017-08-31T02:54:13.799Z,99.99
2017-08-31T02:54:41.768Z,99.99
2017-08-31T02:55:09.693Z,99.99
2017-08-31T02:55:37.798Z,99.99
2017-08-31T02:56:06.264Z,99.99
2017-08-31T02:56:34.449Z,99.99
2017-08-31T02:57:02.650Z,99.99
2017-08-31T02:57:30.696Z,99.99
2017-08-31T02:57:58.925Z,99.99
2017-08-31T02:58:27.019Z,99.99
2017-08-31T02:58:55.183Z,99.99
2017-08-31T02:59:23.314Z,99.99
2017-08-31T02:59:51.439Z,99.99
2017-08-31T03:00:19.507Z,99.99
2017-08-31T03:00:47.676Z,99.99
2017-08-31T03:01:16.035Z,99.99
2017-08-31T03:01:44.234Z,99.99
2017-08-31T03:02:12.500Z,99.99
2017-08-31T03:02:40.587Z,99.99
2017-08-31T03:03:08.644Z,99.99
2017-08-31T03:03:36.691Z,99.99
2017-08-31T03:04:04.905Z,99.99
2017-08-31T03:04:33.018Z,99.99
2017-08-31T03:05:00.993Z,99.99
2017-08-31T03:05:29.050Z,99.99
2017-08-31T03:05:57.199Z,99.99
2017-08-31T03:06:25.399Z,99.99
2017-08-31T03:06:53.548Z,99.99
2017-08-31T03:07:21.768Z,99.99
2017-08-31T03:07:49.990Z,99.99
2017-08-31T03:08:18.221Z,99.99
2017-08-31T03:08:46.210Z,99.99
2017-08-31T03:09:14.300Z,99.99
2017-08-31T03:09:42.386Z,99.99
2017-08-31T03:10:10.590Z,99.99
2017-08-31T03:10:38.872Z,99.99
2017-08-31T03:11:07.159Z,99.99
2017-08-31T03:11:35.143Z,99.99
2017-08-31T03:12:03.274Z,99.99
2017-08-31T03:12:31.487Z,99.99
2017-08-31T03:12:59.666Z,99.99
2017-08-31T03:13:27.716Z,99.99
2017-08-31T03:13:55.966Z,99.99
2017-08-31T03:14:23.939Z,99.99
2017-08-31T03:14:52.052Z,99.99
2017-08-31T03:15:20.285Z,99.99
2017-08-31T03:15:48.414Z,99.99
2017-08-31T03:16:16.569Z,99.99
2017-08-31T03:16:44.565Z,99.99
2017-08-31T03:17:12.752Z,99.99
2017-08-31T03:17:40.716Z,99.99
2017-08-31T03:18:08.935Z,99.99
2017-08-31T03:18:37.166Z,99.99
2017-08-31T03:19:05.364Z,99.99
2017-08-31T03:19:33.450Z,99.99
2017-08-31T03:20:01.610Z,99.99
2017-08-31T03:20:29.661Z,99.99
2017-08-31T03:20:57.907Z,99.99
2017-08-31T03:21:26.070Z,99.99
2017-08-31T03:21:54.253Z,99.99
2017-08-31T03:22:22.427Z,99.99
2017-08-31T03:22:50.529Z,99.99
2017-08-31T03:23:18.763Z,99.99
2017-08-31T03:23:46.767Z,99.99
2017-08-31T03:24:14.953Z,99.99
2017-08-31T03:24:43.208Z,99.99
2017-08-31T03:25:11.338Z,99.99
2017-08-31T03:25:39.557Z,99.99
2017-08-31T03:26:07.681Z,99.99
2017-08-31T03:26:35.886Z,99.99
2017-08-31T03:27:04.066Z,99.99
2017-08-31T03:27:32.182Z,99.99
2017-08-31T03:28:00.343Z,99.99
2017-08-31T03:28:28.467Z,99.99
2017-08-31T03:28:56.655Z,99.99
2017-08-31T03:29:24.787Z,99.99
2017-08-31T03:29:52.968Z,99.99
2017-08-31T03:30:21.069Z,99.99
2017-08-31T03:30:49.140Z,99.99
2017-08-31T03:31:17.227Z,99.99
2017-08-31T03:31:45.349Z,99.99
2017-08-31T03:32:13.458Z,99.99
2017-08-31T03:32:41.708Z,99.99
2017-08-31T03:33:09.813Z,99.99
2017-08-31T03:33:37.996Z,99.99
2017-08-31T03:34:06.227Z,99.99
2017-08-31T03:34:34.407Z,99.99
2017-08-31T03:35:02.528Z,99.99
2017-08-31T03:35:30.754Z,99.99
2017-08-31T03:35:58.781Z,99.99
2017-08-31T03:36:26.982Z,99.99
2017-08-31T03:36:55.182Z,99.99
2017-08-31T03:37:23.240Z,99.99
2017-08-31T03:37:51.417Z,99.99
2017-08-31T03:38:19.538Z,99.99
2017-08-31T03:38:47.763Z,99.99
2017-08-31T03:39:15.756Z,99.99
2017-08-31T03:39:43.880Z,99.99
2017-08-31T03:40:11.965Z,99.99
2017-08-31T03:40:40.198Z,99.99
2017-08-31T03:41:08.307Z,99.99
2017-08-31T03:41:36.455Z,99.99
2017-08-31T03:42:04.489Z,99.99
2017-08-31T03:42:32.623Z,99.99
2017-08-31T03:43:00.633Z,99.99
2017-08-31T03:43:28.865Z,99.99
2017-08-31T03:43:57.024Z,99.99
2017-08-31T03:44:25.093Z,99.99
2017-08-31T03:44:53.188Z,99.99
2017-08-31T03:45:21.281Z,99.99
2017-08-31T03:45:49.352Z,99.99
2017-08-31T03:46:17.594Z,99.99
2017-08-31T03:46:45.803Z,99.99
2017-08-31T03:47:13.963Z,99.99
2017-08-31T03:47:42.114Z,99.99
2017-08-31T03:48:10.241Z,99.99
2017-08-31T03:48:38.404Z,99.99
2017-08-31T03:49:06.447Z,99.99
2017-08-31T03:49:34.549Z,99.99
2017-08-31T03:50:02.762Z,99.99
2017-08-31T03:50:30.997Z,99.99
2017-08-31T03:50:59.027Z,99.99
2017-08-31T03:51:27.272Z,99.99
2017-08-31T03:51:55.614Z,99.99
2017-08-31T03:52:23.617Z,99.99
2017-08-31T03:52:51.821Z,99.99
2017-08-31T03:53:20.009Z,99.99
2017-08-31T03:53:48.154Z,99.99
2017-08-31T03:54:16.342Z,99.99
2017-08-31T03:54:44.364Z,99.99
2017-08-31T03:55:12.612Z,99.99
2017-08-31T03:55:40.678Z,99.99
2017-08-31T03:56:08.860Z,99.99
2017-08-31T03:56:37.039Z,99.99
2017-08-31T03:57:05.317Z,99.99
2017-08-31T03:57:33.495Z,99.99
2017-08-31T03:58:01.494Z,99.99
2017-08-31T03:58:29.689Z,99.99
2017-08-31T03:58:57.937Z,99.99
2017-08-31T03:59:26.160Z,99.99
2017-08-31T03:59:54.383Z,99.99
2017-08-31T04:00:22.420Z,99.99
2017-08-31T04:00:50.598Z,99.99
2017-08-31T04:01:18.726Z,99.99
2017-08-31T04:01:46.868Z,99.99
2017-08-31T04:02:15.063Z,99.99
2017-08-31T04:02:43.162Z,99.99
2017-08-31T04:03:11.240Z,99.99
2017-08-31T04:03:39.449Z,99.99
2017-08-31T04:04:07.588Z,99.99
2017-08-31T04:04:35.812Z,99.99
2017-08-31T04:05:04.016Z,99.99
2017-08-31T04:05:32.212Z,99.99
2017-08-31T04:06:00.462Z,99.99
2017-08-31T04:06:28.682Z,99.99
2017-08-31T04:06:56.998Z,99.99
2017-08-31T04:07:25.124Z,99.99
2017-08-31T04:07:53.387Z,99.99
2017-08-31T04:08:21.503Z,99.99
2017-08-31T04:08:49.623Z,99.99
2017-08-31T04:09:17.875Z,99.99
2017-08-31T04:09:45.982Z,99.99
2017-08-31T04:10:14.159Z,99.99
2017-08-31T04:10:42.346Z,99.99
2017-08-31T04:11:10.488Z,99.99
2017-08-31T04:11:38.550Z,99.99
2017-08-31T04:12:06.580Z,99.99
2017-08-31T04:12:34.730Z,99.99
2017-08-31T04:13:02.965Z,99.99
2017-08-31T04:13:31.228Z,99.99
2017-08-31T04:13:59.301Z,99.99
2017-08-31T04:14:27.648Z,99.99
2017-08-31T04:14:55.866Z,99.99
2017-08-31T04:15:24.005Z,99.99
2017-08-31T04:15:52.201Z,99.99
2017-08-31T04:16:20.388Z,99.99
2017-08-31T04:16:48.541Z,99.99
2017-08-31T04:17:16.850Z,99.99
2017-08-31T04:17:44.975Z,99.99
2017-08-31T04:18:13.059Z,99.99
2017-08-31T04:18:41.261Z,99.99
2017-08-31T04:19:09.295Z,99.99
2017-08-31T04:19:37.428Z,99.99
2017-08-31T04:20:05.542Z,99.99
2017-08-31T04:20:33.623Z,99.99
2017-08-31T04:21:01.731Z,99.99
2017-08-31T04:21:29.908Z,99.99
2017-08-31T04:21:58.071Z,99.99
2017-08-31T04:22:26.428Z,99.99
2017-08-31T04:22:54.536Z,99.99
2017-08-31T04:23:22.725Z,99.99
2017-08-31T04:23:50.829Z,99.99
2017-08-31T04:24:18.872Z,99.99
2017-08-31T04:24:46.872Z,99.99
2017-08-31T04:25:14.967Z,99.99
2017-08-31T04:25:43.083Z,99.99
2017-08-31T04:26:11.189Z,99.99
2017-08-31T04:26:39.400Z,99.99
2017-08-31T04:27:07.600Z,99.99
2017-08-31T04:27:35.738Z,99.99
2017-08-31T04:28:03.889Z,99.99
2017-08-31T04:28:32.095Z,99.99
2017-08-31T04:29:00.109Z,99.99
2017-08-31T04:29:28.351Z,99.99
2017-08-31T04:29:56.561Z,99.99
2017-08-31T04:30:24.760Z,99.99
2017-08-31T04:30:53.051Z,99.99
2017-08-31T04:31:21.142Z,99.99
2017-08-31T04:31:49.318Z,99.99
2017-08-31T04:32:17.499Z,99.99
2017-08-31T04:32:45.596Z,99.99
2017-08-31T04:33:13.694Z,99.99
2017-08-31T04:33:41.959Z,99.99
2017-08-31T04:34:10.189Z,99.99
2017-08-31T04:34:38.374Z,99.99
2017-08-31T04:35:06.511Z,99.99
2017-08-31T04:35:34.516Z,99.99
2017-08-31T04:36:02.713Z,99.99
2017-08-31T04:36:30.894Z,99.99
2017-08-31T04:36:58.987Z,99.99
2017-08-31T04:37:27.086Z,99.99
2017-08-31T04:37:55.264Z,99.99
2017-08-31T04:38:23.262Z,99.99
2017-08-31T04:38:51.342Z,99.99
2017-08-31T04:39:19.538Z,99.99
2017-08-31T04:39:47.634Z,99.99
2017-08-31T04:40:15.710Z,99.99
2017-08-31T04:40:43.845Z,99.99
2017-08-31T04:41:12.043Z,99.99
2017-08-31T04:41:40.160Z,99.99
2017-08-31T04:42:08.278Z,99.99
2017-08-31T04:42:36.449Z,99.99
2017-08-31T04:43:04.596Z,99.99
2017-08-31T04:43:32.783Z,99.99
2017-08-31T04:44:00.969Z,99.99
2017-08-31T04:44:29.142Z,99.99
2017-08-31T04:44:57.348Z,99.99
2017-08-31T04:45:25.447Z,99.99
2017-08-31T04:45:53.638Z,99.99
2017-08-31T04:46:21.796Z,99.99
2017-08-31T04:46:49.904Z,99.99
2017-08-31T04:47:17.892Z,99.99
2017-08-31T04:47:46.065Z,99.99
2017-08-31T04:48:14.297Z,99.99
2017-08-31T04:48:42.320Z,99.99
2017-08-31T04:49:10.425Z,99.99
2017-08-31T04:49:38.454Z,99.99
2017-08-31T04:50:06.637Z,99.99
2017-08-31T04:50:34.768Z,99.99
2017-08-31T04:51:02.874Z,99.99
2017-08-31T04:51:31.045Z,99.99
2017-08-31T04:51:59.201Z,99.99
2017-08-31T04:52:27.470Z,99.99
2017-08-31T04:52:55.490Z,99.99
2017-08-31T04:53:23.609Z,99.99
2017-08-31T04:53:51.695Z,99.99
2017-08-31T04:54:19.712Z,99.99
2017-08-31T04:54:47.747Z,99.99
2017-08-31T04:55:15.899Z,99.99
2017-08-31T04:55:44.122Z,99.99
2017-08-31T04:56:12.334Z,99.99
2017-08-31T04:56:40.542Z,99.99
2017-08-31T04:57:08.772Z,99.99
2017-08-31T04:57:37.029Z,99.99
2017-08-31T04:58:05.118Z,99.99
2017-08-31T04:58:33.136Z,99.99
2017-08-31T04:59:01.300Z,99.99
2017-08-31T04:59:29.406Z,99.99
2017-08-31T04:59:57.520Z,99.99
2017-08-31T05:00:25.723Z,99.99
2017-08-31T05:00:53.963Z,99.99
2017-08-31T05:01:22.189Z,99.99
2017-08-31T05:01:50.150Z,99.99
2017-08-31T05:02:18.300Z,99.99
2017-08-31T05:02:46.475Z,99.99
2017-08-31T05:03:14.628Z,99.99
2017-08-31T05:03:42.853Z,99.99
2017-08-31T05:04:11.095Z,99.99
2017-08-31T05:04:39.300Z,99.99
2017-08-31T05:05:07.421Z,99.99
2017-08-31T05:05:35.646Z,99.99
2017-08-31T05:06:03.811Z,99.99
2017-08-31T05:06:31.806Z,99.99
2017-08-31T05:06:59.917Z,99.99
2017-08-31T05:07:28.045Z,99.99
2017-08-31T05:07:56.188Z,99.99
2017-08-31T05:08:24.357Z,99.99
2017-08-31T05:08:52.575Z,99.99
2017-08-31T05:09:20.658Z,99.99
2017-08-31T05:09:48.853Z,99.99
2017-08-31T05:10:17.040Z,99.99
2017-08-31T05:10:45.254Z,99.99
2017-08-31T05:11:13.508Z,99.99
2017-08-31T05:11:41.735Z,99.99
2017-08-31T05:12:09.871Z,99.99
2017-08-31T05:12:38.064Z,99.99
2017-08-31T05:13:06.391Z,99.99
2017-08-31T05:13:34.524Z,99.99
2017-08-31T05:14:02.659Z,99.99
2017-08-31T05:14:30.750Z,99.99
2017-08-31T05:14:58.823Z,99.99
2017-08-31T05:15:26.906Z,99.99
2017-08-31T05:15:55.134Z,99.99
2017-08-31T05:16:23.278Z,99.99
2017-08-31T05:16:51.441Z,99.99
2017-08-31T05:17:19.618Z,99.99
2017-08-31T05:17:47.817Z,99.99
2017-08-31T05:18:15.919Z,99.99
2017-08-31T05:18:44.143Z,99.99
2017-08-31T05:19:12.244Z,99.99
2017-08-31T05:19:40.428Z,99.99
2017-08-31T05:20:08.545Z,99.99
2017-08-31T05:20:36.747Z,99.99
2017-08-31T05:21:04.958Z,99.99
2017-08-31T05:21:33.128Z,99.99
2017-08-31T05:22:01.186Z,99.99
2017-08-31T05:22:29.227Z,99.99
2017-08-31T05:22:57.303Z,99.99
2017-08-31T05:23:25.536Z,99.99
2017-08-31T05:23:53.652Z,99.99
2017-08-31T05:24:21.838Z,99.99
2017-08-31T05:24:50.074Z,99.99
2017-08-31T05:25:18.186Z,99.99
2017-08-31T05:25:46.262Z,99.99
2017-08-31T05:26:14.421Z,99.99
2017-08-31T05:26:42.614Z,99.99
2017-08-31T05:27:10.627Z,99.99
2017-08-31T05:27:38.754Z,99.99
2017-08-31T05:28:06.961Z,99.99
2017-08-31T05:28:34.993Z,99.99
2017-08-31T05:29:03.238Z,99.99
2017-08-31T05:29:31.409Z,99.99
2017-08-31T05:29:59.331Z,99.99
2017-08-31T05:30:27.419Z,99.99
2017-08-31T05:30:55.626Z,99.99
2017-08-31T05:31:23.617Z,99.99
2017-08-31T05:31:51.813Z,99.99
2017-08-31T05:32:19.928Z,99.99
2017-08-31T05:32:48.030Z,99.99
2017-08-31T05:33:16.369Z,99.99
2017-08-31T05:33:44.572Z,99.99
2017-08-31T05:34:12.802Z,99.99
2017-08-31T05:34:41.031Z,99.99
2017-08-31T05:35:09.153Z,99.99
2017-08-31T05:35:37.291Z,99.99
2017-08-31T05:36:05.545Z,99.99
2017-08-31T05:36:33.737Z,99.99
2017-08-31T05:37:01.972Z,99.99
2017-08-31T05:37:30.143Z,99.99
2017-08-31T05:37:58.270Z,99.99
2017-08-31T05:38:26.489Z,99.99
2017-08-31T05:38:54.702Z,99.99
2017-08-31T05:39:22.828Z,99.99
2017-08-31T05:39:50.962Z,99.99
2017-08-31T05:40:19.018Z,99.99
2017-08-31T05:40:47.031Z,99.99
2017-08-31T05:41:15.227Z,99.99
2017-08-31T05:41:43.400Z,99.99
2017-08-31T05:42:11.612Z,99.99
2017-08-31T05:42:39.671Z,99.99
2017-08-31T05:43:07.833Z,99.99
2017-08-31T05:43:36.027Z,99.99
2017-08-31T05:44:04.129Z,99.99
2017-08-31T05:44:32.374Z,99.99
2017-08-31T05:45:00.558Z,99.99
2017-08-31T05:45:28.824Z,99.99
2017-08-31T05:45:57.089Z,99.99
2017-08-31T05:46:25.336Z,99.99
2017-08-31T05:46:53.531Z,99.99
2017-08-31T05:47:21.721Z,99.99
2017-08-31T05:47:49.854Z,99.99
2017-08-31T05:48:18.110Z,99.99
2017-08-31T05:48:46.275Z,99.99
2017-08-31T05:49:14.478Z,99.99
2017-08-31T05:49:42.680Z,99.99
2017-08-31T05:50:10.796Z,99.99
2017-08-31T05:50:38.988Z,99.99
2017-08-31T05:51:06.899Z,99.99
2017-08-31T05:51:34.929Z,99.99
2017-08-31T05:52:03.207Z,99.99
2017-08-31T05:52:31.373Z,99.99
2017-08-31T05:52:59.604Z,99.99
2017-08-31T05:53:27.852Z,99.99
2017-08-31T05:53:56.382Z,99.99
2017-08-31T05:54:24.458Z,99.99
2017-08-31T05:54:52.682Z,99.99
2017-08-31T05:55:20.899Z,99.99
2017-08-31T05:55:48.981Z,99.99
2017-08-31T05:56:17.196Z,99.99
2017-08-31T05:56:45.297Z,99.99
2017-08-31T05:57:13.494Z,99.99
2017-08-31T05:57:41.638Z,99.99
2017-08-31T05:58:09.746Z,99.99
2017-08-31T05:58:37.983Z,99.99
2017-08-31T05:59:06.222Z,99.99
2017-08-31T05:59:34.236Z,99.99
2017-08-31T06:00:02.244Z,99.99
2017-08-31T06:00:30.524Z,99.99
2017-08-31T06:00:58.763Z,99.99
2017-08-31T06:01:26.933Z,99.99
2017-08-31T06:01:55.239Z,99.99
2017-08-31T06:02:23.306Z,99.99
2017-08-31T06:02:51.312Z,99.99
2017-08-31T06:03:19.439Z,99.99